Wednesday, October 01, 2014
22:26 UTC
  |  Log In   |  Register Free
Airport Search:

South Big Horn County Airport
(KGEY)

South Big Horn County Airport Diagram
No Airport Diagram Available

FAA data valid effective September 18, 2014 - November 13, 2014 (unless otherwise noted).

 
 
 
 
 
 
 
 
 
 
 
 
 
 

Current Aviation Weather for South Big Horn County Airport (KGEY)

The most recent METAR observation for KGEY was updated at: 2210
METAR Summary (Translated METAR)
KGEY
012153Z AUTO 00000KT 10SM FEW065 SCT085 14/M01 A2995 RMK AO2 SLP130 T01441006
KWRL
012153Z AUTO VRB03KT 10SM FEW055 BKN080 13/01 A2997 RMK AO2 SLP140 T01280006
(33.8 nm SE from KGEY)
KPOY
012155Z AUTO 00000KT 10SM -DZ SCT035 BKN048 BKN050 08/01 A2997 RMK AO2
(36.8 nm NW from KGEY)
TAF Summary (Translated TAF)
KWRL
(33.8 nm SE from KGEY)
011735Z 0118/0218 34007KT P6SM VCSH SCT040 BKN060 TEMPO 0118/0121 -SHRA BKN040 FM020000 VRB05KT P6SM SCT060
  Airport Weather Conditions for KGEY

Current weather conditions are
not available for GEY


The nearest NOAA weather station
is at WRL, (33.8 nm SE from GEY)
  
 Current Weather at WRL
55° F
Mostly Cloudy
Variable winds at 3.5 mph
WRL NOAA Radar

Pressure: 29.97 in
Humidity: 44%
Wind: Variable at 3.5 MPH (3 KT)
Dew Point: 33.1°F
Visibility: 10.00 mi


Airport Weather Forecast for KGEY

Translated METAR and TAF for KGEY
Translated METAR for KGEY (2220 UTC 01 October 2014)
found at http://aviationweather.gov/adds/metars/
 
METAR text: KGEY 012153Z AUTO 00000KT 10SM FEW065 SCT085 14/M01 A2995 RMK AO2 SLP130 T01441006
Conditions at: KGEY (GREYBULL , WY, US) observed 2153 UTC 01 October 2014
Temperature: 14.4°C (58°F)
Dewpoint: -0.6°C (31°F) [RH = 36%]
Pressure (altimeter): 29.95 inches Hg (1014.3 mb)
[Sea-level pressure: 1013.0 mb]
Winds: calm
Visibility: 10 or more miles (16+ km)
Ceiling: at least 12,000 feet AGL
Clouds: few clouds at 6500 feet AGL
scattered clouds at 8500 feet AGL
Weather: automated observation with no human augmentation;
there may or may not be significant weather present at this time
Translated TAF for KGEY

There is no translated TAF available for this airport

Find All Airport Services Find A Hotel Find A Rental Car Find A Golf Course Find A Restaurant $100 Hamburger



FBO's on the Field
FBO Company Facility Photos Services Transportation Aviation Fuel Prices: Prices include tax
Catering Weather Repair Courtesy Rental Type 100LL JetA JetA+ MOGAS 8087
 
B & G Industries, LLC

This FBO has not yet been rated
FS:Independent
Last Updated: Sep-05
Login to update fuel prices
SS:
Contact B & G Industries, LLCMore FBO Information
 
South Big Horn County Airport

This FBO has not yet been rated
FS:Independent
Last Updated: Sep-12
Login to update fuel prices
SS:
Contact South Big Horn County AirportMore FBO Information
 
Add another FBO Facility Photos Catering Weather Repair Courtesy Rental Type 100LL JetA JetA+ MOGAS 8087
Services Transportation Aviation Fuel Prices: Prices include tax


model-print
model-print
model-print
model-print